Wetterdaten: Woche 09.08.10 - 15.08.10 (KW32)
Datum Zeit Temp. Innen Temp. Aussen UV X Diff Temp. Feuchte Inne Feuchte Auss Sonnenschein Luftdruck Regen ab 0,1 Wind Sonnenschein T Regendauer Windben
09.08.2010 00:00 22,8 C 16,0 C 0,0 UV-I 0,0 C 62 % 88 % 0 % 1021,2 hPa 0,0 l/m 0,1 km/h (0 Bft) 0,00 h 0,00 h 0,8 km/h (0 Bft)
09.08.2010 01:00 22,6 C 15,2 C 0,0 UV-I 0,0 C 61 % 90 % 0 % 1021,3 hPa 0,0 l/m 0,1 km/h (0 Bft) 0,00 h 0,00 h 0,2 km/h (0 Bft)
09.08.2010 02:00 22,4 C 14,7 C 0,0 UV-I 0,0 C 61 % 91 % 0 % 1021,1 hPa 0,0 l/m 0,2 km/h (0 Bft) 0,00 h 0,03 h 1,1 km/h (1 Bft)
09.08.2010 03:00 22,2 C 14,8 C 0,0 UV-I 0,0 C 61 % 92 % 0 % 1021,0 hPa 0,0 l/m 0,0 km/h (0 Bft) 0,00 h 0,00 h 0,0 km/h (0 Bft)
09.08.2010 04:00 22,1 C 14,6 C 0,0 UV-I 0,0 C 61 % 92 % 0 % 1021,0 hPa 0,0 l/m 0,1 km/h (0 Bft) 0,00 h 0,00 h 0,2 km/h (0 Bft)
09.08.2010 05:00 21,9 C 14,3 C 0,0 UV-I 0,0 C 61 % 93 % 0 % 1020,9 hPa 0,0 l/m 0,2 km/h (0 Bft) 0,00 h 0,00 h 0,8 km/h (0 Bft)
09.08.2010 06:00 21,8 C 14,1 C 0,0 UV-I 0,0 C 61 % 94 % 0 % 1020,9 hPa 0,0 l/m 0,5 km/h (0 Bft) 0,00 h 0,00 h 2,1 km/h (1 Bft)
09.08.2010 07:00 21,6 C 14,3 C 0,0 UV-I 0,1 C 62 % 94 % 2 % 1021,0 hPa 0,0 l/m 0,7 km/h (0 Bft) 0,00 h 0,00 h 1,5 km/h (1 Bft)
09.08.2010 08:00 21,8 C 15,0 C 0,7 UV-I 1,3 C 63 % 95 % 36 % 1021,1 hPa 0,0 l/m 0,4 km/h (0 Bft) 0,00 h 0,00 h 1,2 km/h (1 Bft)
09.08.2010 09:00 22,0 C 16,1 C 1,5 UV-I 1,7 C 63 % 93 % 49 % 1021,4 hPa 0,0 l/m 0,8 km/h (0 Bft) 0,00 h 0,00 h 1,8 km/h (1 Bft)
09.08.2010 10:00 22,2 C 17,4 C 2,7 UV-I 2,4 C 63 % 89 % 68 % 1021,7 hPa 0,0 l/m 1,6 km/h (1 Bft) 0,00 h 0,00 h 3,6 km/h (1 Bft)
09.08.2010 11:00 22,4 C 18,6 C 3,7 UV-I 2,8 C 62 % 83 % 80 % 1021,6 hPa 0,0 l/m 1,9 km/h (1 Bft) 0,40 h 0,00 h 4,4 km/h (1 Bft)
09.08.2010 12:00 22,8 C 19,7 C 5,0 UV-I 3,8 C 61 % 76 % 97 % 1021,3 hPa 0,0 l/m 2,9 km/h (1 Bft) 0,80 h 0,00 h 5,1 km/h (1 Bft)
09.08.2010 13:00 23,2 C 20,9 C 5,6 UV-I 4,4 C 58 % 68 % 99 % 1021,2 hPa 0,0 l/m 2,5 km/h (1 Bft) 0,97 h 0,00 h 4,5 km/h (1 Bft)
09.08.2010 14:00 23,8 C 22,0 C 7,3 UV-I 4,8 C 56 % 63 % 100 % 1021,3 hPa 0,0 l/m 3,0 km/h (1 Bft) 0,82 h 0,00 h 5,9 km/h (2 Bft)
09.08.2010 15:00 24,7 C 22,9 C 8,3 UV-I 4,7 C 53 % 58 % 100 % 1021,5 hPa 0,0 l/m 4,7 km/h (1 Bft) 0,97 h 0,00 h 7,3 km/h (2 Bft)
09.08.2010 16:00 25,4 C 23,1 C 6,3 UV-I 3,8 C 50 % 56 % 89 % 1021,4 hPa 0,0 l/m 2,9 km/h (1 Bft) 0,73 h 0,00 h 4,8 km/h (1 Bft)
09.08.2010 17:00 26,3 C 23,6 C 5,4 UV-I 4,8 C 47 % 53 % 100 % 1022,0 hPa 0,0 l/m 3,1 km/h (1 Bft) 0,93 h 0,00 h 5,6 km/h (1 Bft)
09.08.2010 18:00 26,0 C 23,1 C 2,5 UV-I 2,2 C 48 % 53 % 64 % 1020,6 hPa 0,0 l/m 2,2 km/h (1 Bft) 0,20 h 0,00 h 5,6 km/h (1 Bft)
09.08.2010 19:00 25,2 C 22,5 C 1,5 UV-I 0,4 C 48 % 54 % 12 % 1019,4 hPa 0,0 l/m 1,3 km/h (1 Bft) 0,00 h 0,00 h 3,2 km/h (1 Bft)
09.08.2010 20:00 24,6 C 21,3 C 0,7 UV-I 0,0 C 50 % 59 % 0 % 1019,4 hPa 0,0 l/m 0,0 km/h (0 Bft) 0,00 h 0,00 h 0,0 km/h (0 Bft)
09.08.2010 21:00 24,0 C 19,0 C 0,1 UV-I 0,0 C 52 % 69 % 0 % 1018,9 hPa 0,0 l/m 0,0 km/h (0 Bft) 0,00 h 0,00 h 0,0 km/h (0 Bft)
09.08.2010 22:00 23,5 C 16,9 C 0,1 UV-I 0,0 C 54 % 78 % 0 % 1018,8 hPa 0,0 l/m 0,0 km/h (0 Bft) 0,00 h 0,00 h 0,0 km/h (0 Bft)
09.08.2010 23:00 23,2 C 15,8 C 0,1 UV-I 0,0 C 55 % 82 % 0 % 1018,9 hPa 0,0 l/m 0,1 km/h (0 Bft) 0,00 h 0,00 h 0,0 km/h (0 Bft)
10.08.2010 00:00 23,0 C 15,5 C 0,1 UV-I 0,0 C 56 % 83 % 0 % 1018,9 hPa 0,0 l/m 0,4 km/h (0 Bft) 0,00 h 0,00 h 1,0 km/h (0 Bft)
10.08.2010 01:00 22,8 C 15,2 C 0,1 UV-I 0,0 C 56 % 84 % 0 % 1018,6 hPa 0,0 l/m 0,4 km/h (0 Bft) 0,00 h 0,00 h 1,4 km/h (1 Bft)
10.08.2010 02:00 22,5 C 14,6 C 0,1 UV-I 0,0 C 56 % 85 % 0 % 1018,2 hPa 0,0 l/m 0,2 km/h (0 Bft) 0,00 h 0,00 h 1,2 km/h (1 Bft)
10.08.2010 03:00 22,2 C 14,5 C 0,0 UV-I 0,0 C 57 % 87 % 0 % 1018,0 hPa 0,0 l/m 0,4 km/h (0 Bft) 0,00 h 0,00 h 0,9 km/h (0 Bft)
10.08.2010 04:00 22,1 C 14,4 C 0,1 UV-I 0,0 C 57 % 88 % 0 % 1017,6 hPa 0,0 l/m 1,0 km/h (0 Bft) 0,00 h 0,00 h 2,6 km/h (1 Bft)
10.08.2010 05:00 21,9 C 14,0 C 0,1 UV-I 0,0 C 57 % 89 % 0 % 1017,4 hPa 0,0 l/m 1,9 km/h (1 Bft) 0,00 h 0,00 h 4,1 km/h (1 Bft)
10.08.2010 06:00 21,8 C 13,6 C 0,2 UV-I 0,0 C 58 % 90 % 0 % 1017,4 hPa 0,0 l/m 0,6 km/h (0 Bft) 0,00 h 0,00 h 1,0 km/h (0 Bft)
10.08.2010 07:00 21,8 C 14,2 C 0,9 UV-I 0,2 C 58 % 91 % 5 % 1017,5 hPa 0,0 l/m 1,1 km/h (1 Bft) 0,00 h 0,00 h 2,0 km/h (1 Bft)
10.08.2010 08:00 21,9 C 15,7 C 1,7 UV-I 1,5 C 59 % 88 % 40 % 1017,8 hPa 0,0 l/m 2,1 km/h (1 Bft) 0,15 h 0,00 h 3,2 km/h (1 Bft)
10.08.2010 09:00 22,0 C 18,4 C 5,0 UV-I 5,3 C 59 % 81 % 100 % 1018,0 hPa 0,0 l/m 2,9 km/h (1 Bft) 1,00 h 0,00 h 5,1 km/h (1 Bft)
10.08.2010 10:00 22,3 C 21,0 C 9,0 UV-I 6,0 C 59 % 72 % 100 % 1017,8 hPa 0,0 l/m 2,7 km/h (1 Bft) 1,00 h 0,00 h 5,7 km/h (1 Bft)
10.08.2010 11:00 22,6 C 23,2 C 10,2 UV-I 5,7 C 59 % 64 % 100 % 1017,4 hPa 0,0 l/m 5,5 km/h (1 Bft) 0,90 h 0,00 h 7,5 km/h (2 Bft)
10.08.2010 12:00 23,1 C 25,3 C 6,2 UV-I 5,3 C 58 % 57 % 100 % 1016,9 hPa 0,0 l/m 7,1 km/h (2 Bft) 0,87 h 0,00 h 10,6 km/h (2 Bft)
10.08.2010 13:00 23,7 C 25,9 C 5,9 UV-I 3,3 C 57 % 53 % 93 % 1016,6 hPa 0,0 l/m 3,3 km/h (1 Bft) 0,70 h 0,00 h 5,6 km/h (1 Bft)
10.08.2010 14:00 24,4 C 26,5 C 7,3 UV-I 3,7 C 55 % 50 % 96 % 1016,8 hPa 0,0 l/m 4,4 km/h (1 Bft) 0,80 h 0,00 h 8,3 km/h (2 Bft)
10.08.2010 15:00 25,1 C 26,6 C 6,3 UV-I 3,4 C 53 % 50 % 93 % 1016,8 hPa 0,0 l/m 5,5 km/h (1 Bft) 0,90 h 0,00 h 6,8 km/h (2 Bft)
10.08.2010 16:00 25,3 C 26,2 C 4,5 UV-I 2,2 C 53 % 52 % 64 % 1016,4 hPa 0,0 l/m 4,7 km/h (1 Bft) 0,10 h 0,00 h 8,6 km/h (2 Bft)
10.08.2010 17:00 25,4 C 26,0 C 3,3 UV-I 1,8 C 52 % 51 % 51 % 1016,0 hPa 0,0 l/m 4,9 km/h (1 Bft) 0,00 h 0,00 h 6,6 km/h (2 Bft)
10.08.2010 18:00 25,2 C 25,1 C 2,4 UV-I 0,8 C 50 % 47 % 22 % 1015,5 hPa 0,0 l/m 4,5 km/h (1 Bft) 0,00 h 0,00 h 7,5 km/h (2 Bft)
10.08.2010 19:00 24,9 C 24,0 C 0,9 UV-I 0,0 C 50 % 53 % 1 % 1015,5 hPa 0,0 l/m 4,4 km/h (1 Bft) 0,00 h 0,03 h 7,1 km/h (2 Bft)
10.08.2010 20:00 24,5 C 22,0 C 0,2 UV-I 0,0 C 53 % 65 % 0 % 1015,6 hPa 0,2 l/m 0,8 km/h (0 Bft) 0,00 h 0,83 h 1,6 km/h (1 Bft)
10.08.2010 21:00 24,1 C 20,0 C 0,1 UV-I 0,0 C 57 % 76 % 0 % 1016,0 hPa 0,0 l/m 0,9 km/h (0 Bft) 0,00 h 0,03 h 1,9 km/h (1 Bft)
10.08.2010 22:00 23,9 C 19,2 C 0,1 UV-I 0,0 C 58 % 81 % 0 % 1016,3 hPa 0,0 l/m 0,5 km/h (0 Bft) 0,00 h 0,00 h 1,0 km/h (0 Bft)
10.08.2010 23:00 23,6 C 18,5 C 0,0 UV-I 0,0 C 60 % 84 % 0 % 1016,4 hPa 1,5 l/m 0,9 km/h (0 Bft) 0,00 h 0,77 h 2,6 km/h (1 Bft)
11.08.2010 00:00 23,3 C 17,5 C 0,1 UV-I 0,0 C 63 % 89 % 0 % 1016,4 hPa 2,4 l/m 1,8 km/h (1 Bft) 0,00 h 0,00 h 4,2 km/h (1 Bft)
11.08.2010 01:00 23,0 C 17,2 C 0,1 UV-I 0,0 C 65 % 92 % 0 % 1016,0 hPa 2,0 l/m 1,5 km/h (1 Bft) 0,00 h 0,00 h 2,6 km/h (1 Bft)
11.08.2010 02:00 22,9 C 17,1 C 0,1 UV-I 0,0 C 65 % 93 % 0 % 1015,6 hPa 1,8 l/m 1,8 km/h (1 Bft) 0,00 h 0,03 h 3,5 km/h (1 Bft)
11.08.2010 03:00 22,9 C 17,1 C 0,1 UV-I 0,0 C 66 % 93 % 0 % 1015,2 hPa 0,0 l/m 3,2 km/h (1 Bft) 0,00 h 0,00 h 5,4 km/h (1 Bft)
11.08.2010 04:00 22,6 C 17,2 C 0,1 UV-I 0,0 C 66 % 93 % 0 % 1014,9 hPa 0,0 l/m 2,8 km/h (1 Bft) 0,00 h 0,00 h 5,1 km/h (1 Bft)
11.08.2010 05:00 22,6 C 17,3 C 0,0 UV-I 0,0 C 66 % 93 % 0 % 1014,6 hPa 0,0 l/m 1,6 km/h (1 Bft) 0,00 h 0,00 h 2,7 km/h (1 Bft)
11.08.2010 06:00 22,4 C 17,1 C 0,1 UV-I 0,0 C 67 % 93 % 0 % 1014,6 hPa 0,3 l/m 4,0 km/h (1 Bft) 0,00 h 0,17 h 6,9 km/h (2 Bft)
11.08.2010 07:00 22,3 C 17,1 C 0,3 UV-I 0,0 C 68 % 94 % 0 % 1014,8 hPa 0,3 l/m 4,0 km/h (1 Bft) 0,00 h 0,40 h 6,6 km/h (2 Bft)
11.08.2010 08:00 22,2 C 17,4 C 0,9 UV-I 0,1 C 68 % 94 % 3 % 1015,0 hPa 0,1 l/m 4,4 km/h (1 Bft) 0,00 h 0,17 h 6,9 km/h (2 Bft)
11.08.2010 09:00 22,4 C 18,0 C 1,8 UV-I 0,7 C 69 % 93 % 19 % 1015,6 hPa 0,0 l/m 4,6 km/h (1 Bft) 0,00 h 0,00 h 7,5 km/h (2 Bft)
11.08.2010 10:00 22,6 C 18,7 C 3,4 UV-I 2,0 C 69 % 92 % 59 % 1015,9 hPa 0,0 l/m 5,0 km/h (1 Bft) 0,23 h 0,00 h 6,6 km/h (2 Bft)
11.08.2010 11:00 22,9 C 19,8 C 4,2 UV-I 2,2 C 68 % 87 % 64 % 1016,3 hPa 0,0 l/m 5,7 km/h (1 Bft) 0,13 h 0,00 h 7,7 km/h (2 Bft)
11.08.2010 12:00 23,2 C 20,4 C 3,0 UV-I 2,0 C 67 % 84 % 56 % 1016,3 hPa 0,3 l/m 2,7 km/h (1 Bft) 0,37 h 0,37 h 4,5 km/h (1 Bft)
11.08.2010 13:00 23,2 C 19,7 C 2,6 UV-I 0,5 C 66 % 85 % 14 % 1016,4 hPa 0,1 l/m 3,1 km/h (1 Bft) 0,00 h 0,20 h 5,8 km/h (2 Bft)
11.08.2010 14:00 23,6 C 20,7 C 6,9 UV-I 3,4 C 65 % 81 % 76 % 1017,1 hPa 0,0 l/m 2,9 km/h (1 Bft) 0,63 h 0,10 h 5,3 km/h (1 Bft)
11.08.2010 15:00 24,4 C 22,0 C 4,0 UV-I 2,8 C 62 % 74 % 75 % 1017,1 hPa 0,0 l/m 2,3 km/h (1 Bft) 0,40 h 0,00 h 5,1 km/h (1 Bft)
11.08.2010 16:00 25,1 C 23,0 C 6,5 UV-I 3,6 C 60 % 69 % 86 % 1017,3 hPa 0,0 l/m 2,9 km/h (1 Bft) 0,57 h 0,00 h 4,8 km/h (1 Bft)
11.08.2010 17:00 25,2 C 22,8 C 3,0 UV-I 1,6 C 59 % 67 % 46 % 1016,6 hPa 0,0 l/m 0,9 km/h (0 Bft) 0,03 h 0,00 h 2,2 km/h (1 Bft)
11.08.2010 18:00 25,1 C 23,3 C 2,5 UV-I 1,9 C 59 % 60 % 52 % 1016,5 hPa 0,0 l/m 3,0 km/h (1 Bft) 0,17 h 0,00 h 4,5 km/h (1 Bft)
11.08.2010 19:00 24,9 C 22,3 C 1,1 UV-I 0,0 C 59 % 63 % 0 % 1016,1 hPa 0,0 l/m 2,6 km/h (1 Bft) 0,00 h 0,00 h 4,2 km/h (1 Bft)
11.08.2010 20:00 24,5 C 21,1 C 0,4 UV-I 0,0 C 59 % 65 % 0 % 1016,4 hPa 0,0 l/m 6,4 km/h (2 Bft) 0,00 h 0,00 h 8,0 km/h (2 Bft)
11.08.2010 21:00 24,0 C 19,6 C 0,1 UV-I 0,0 C 60 % 67 % 0 % 1016,8 hPa 0,0 l/m 5,4 km/h (1 Bft) 0,00 h 0,00 h 7,0 km/h (2 Bft)
11.08.2010 22:00 23,7 C 18,0 C 0,1 UV-I 0,0 C 60 % 73 % 0 % 1017,1 hPa 0,0 l/m 0,5 km/h (0 Bft) 0,00 h 0,00 h 0,5 km/h (0 Bft)
11.08.2010 23:00 23,5 C 17,2 C 0,1 UV-I 0,0 C 60 % 77 % 0 % 1017,1 hPa 0,0 l/m 0,4 km/h (0 Bft) 0,00 h 0,00 h 1,3 km/h (1 Bft)
12.08.2010 00:00 23,3 C 16,8 C 0,1 UV-I 0,0 C 61 % 78 % 0 % 1016,9 hPa 0,0 l/m 0,0 km/h (0 Bft) 0,00 h 0,00 h 0,0 km/h (0 Bft)
12.08.2010 01:00 23,2 C 16,2 C 0,0 UV-I 0,0 C 60 % 81 % 0 % 1016,8 hPa 0,0 l/m 0,0 km/h (0 Bft) 0,00 h 0,00 h 0,0 km/h (0 Bft)
12.08.2010 02:00 23,1 C 15,8 C 0,0 UV-I 0,0 C 61 % 81 % 0 % 1016,3 hPa 0,0 l/m 0,0 km/h (0 Bft) 0,00 h 0,00 h 0,0 km/h (0 Bft)
12.08.2010 03:00 23,0 C 15,0 C 0,0 UV-I 0,0 C 60 % 84 % 0 % 1016,3 hPa 0,0 l/m 0,0 km/h (0 Bft) 0,00 h 0,00 h 0,0 km/h (0 Bft)
12.08.2010 04:00 22,8 C 14,4 C 0,0 UV-I 0,0 C 60 % 86 % 0 % 1015,9 hPa 0,0 l/m 0,0 km/h (0 Bft) 0,00 h 0,00 h 0,0 km/h (0 Bft)
12.08.2010 05:00 22,6 C 13,7 C 0,0 UV-I 0,0 C 60 % 87 % 0 % 1015,6 hPa 0,0 l/m 0,0 km/h (0 Bft) 0,00 h 0,00 h 0,0 km/h (0 Bft)
12.08.2010 06:00 22,4 C 13,1 C 0,1 UV-I 0,0 C 60 % 88 % 0 % 1015,7 hPa 0,0 l/m 0,0 km/h (0 Bft) 0,00 h 0,00 h 0,0 km/h (0 Bft)
12.08.2010 07:00 22,3 C 12,9 C 0,6 UV-I 0,0 C 59 % 89 % 1 % 1015,9 hPa 0,0 l/m 0,0 km/h (0 Bft) 0,00 h 0,00 h 0,0 km/h (0 Bft)
12.08.2010 08:00 22,2 C 14,2 C 1,6 UV-I 2,5 C 59 % 88 % 52 % 1016,2 hPa 0,0 l/m 0,0 km/h (0 Bft) 0,33 h 0,00 h 0,0 km/h (0 Bft)
12.08.2010 09:00 22,3 C 17,0 C 5,6 UV-I 8,0 C 59 % 78 % 100 % 1016,3 hPa 0,0 l/m 0,0 km/h (0 Bft) 0,97 h 0,00 h 0,0 km/h (0 Bft)
12.08.2010 10:00 22,5 C 19,4 C 9,8 UV-I 7,7 C 58 % 65 % 100 % 1016,7 hPa 0,0 l/m 2,0 km/h (1 Bft) 0,90 h 0,00 h 4,3 km/h (1 Bft)
12.08.2010 11:00 22,8 C 20,7 C 11,1 UV-I 7,5 C 57 % 60 % 100 % 1016,8 hPa 0,0 l/m 3,3 km/h (1 Bft) 0,93 h 0,00 h 5,7 km/h (1 Bft)
12.08.2010 12:00 23,1 C 21,9 C 5,5 UV-I 7,6 C 56 % 55 % 100 % 1016,8 hPa 0,0 l/m 3,8 km/h (1 Bft) 0,93 h 0,00 h 6,7 km/h (2 Bft)
12.08.2010 13:00 23,7 C 22,4 C 8,2 UV-I 5,7 C 54 % 52 % 100 % 1017,0 hPa 0,0 l/m 7,3 km/h (2 Bft) 0,97 h 0,00 h 10,0 km/h (2 Bft)
12.08.2010 14:00 24,8 C 22,9 C 7,1 UV-I 4,6 C 51 % 49 % 96 % 1018,5 hPa 0,0 l/m 5,4 km/h (1 Bft) 0,77 h 0,00 h 8,3 km/h (2 Bft)
12.08.2010 15:00 25,7 C 23,0 C 8,8 UV-I 4,9 C 49 % 48 % 96 % 1018,4 hPa 0,0 l/m 5,6 km/h (1 Bft) 0,80 h 0,00 h 8,4 km/h (2 Bft)
12.08.2010 16:00 26,3 C 22,7 C 3,3 UV-I 2,4 C 47 % 50 % 58 % 1018,9 hPa 0,0 l/m 3,6 km/h (1 Bft) 0,17 h 0,00 h 5,0 km/h (1 Bft)
12.08.2010 17:00 25,5 C 21,7 C 2,1 UV-I 0,7 C 48 % 56 % 20 % 1017,9 hPa 0,0 l/m 4,6 km/h (1 Bft) 0,00 h 0,00 h 8,0 km/h (2 Bft)
12.08.2010 18:00 24,8 C 19,7 C 0,7 UV-I 0,0 C 50 % 63 % 0 % 1017,8 hPa 0,0 l/m 4,5 km/h (1 Bft) 0,00 h 0,00 h 7,8 km/h (2 Bft)
12.08.2010 19:00 24,2 C 18,6 C 0,6 UV-I 0,0 C 51 % 69 % 0 % 1018,1 hPa 0,0 l/m 5,0 km/h (1 Bft) 0,00 h 0,00 h 7,7 km/h (2 Bft)
12.08.2010 20:00 23,9 C 17,9 C 0,2 UV-I 0,0 C 52 % 72 % 0 % 1018,3 hPa 0,0 l/m 0,6 km/h (0 Bft) 0,00 h 0,00 h 0,8 km/h (0 Bft)
12.08.2010 21:00 23,6 C 17,3 C 0,1 UV-I 0,0 C 54 % 77 % 0 % 1018,9 hPa 0,0 l/m 0,2 km/h (0 Bft) 0,00 h 0,00 h 0,5 km/h (0 Bft)
12.08.2010 22:00 23,3 C 17,1 C 0,1 UV-I 0,0 C 55 % 80 % 0 % 1018,2 hPa 0,0 l/m 1,8 km/h (1 Bft) 0,00 h 0,07 h 2,3 km/h (1 Bft)
12.08.2010 23:00 23,2 C 16,7 C 0,1 UV-I 0,0 C 55 % 80 % 0 % 1016,8 hPa 0,0 l/m 0,9 km/h (0 Bft) 0,00 h 0,00 h 1,3 km/h (1 Bft)
13.08.2010 00:00 23,1 C 15,8 C 0,1 UV-I 0,0 C 55 % 81 % 0 % 1016,7 hPa 0,0 l/m 0,3 km/h (0 Bft) 0,00 h 0,00 h 0,3 km/h (0 Bft)
13.08.2010 01:00 22,9 C 14,9 C 0,1 UV-I 0,0 C 55 % 84 % 0 % 1016,8 hPa 0,0 l/m 0,2 km/h (0 Bft) 0,00 h 0,00 h 0,1 km/h (0 Bft)
13.08.2010 02:00 22,7 C 14,3 C 0,1 UV-I 0,0 C 55 % 85 % 0 % 1016,6 hPa 0,0 l/m 0,0 km/h (0 Bft) 0,00 h 0,00 h 0,2 km/h (0 Bft)
13.08.2010 03:00 22,5 C 13,6 C 0,1 UV-I 0,0 C 55 % 87 % 0 % 1016,8 hPa 0,0 l/m 0,0 km/h (0 Bft) 0,00 h 0,00 h 0,0 km/h (0 Bft)
13.08.2010 04:00 22,3 C 13,4 C 0,1 UV-I 0,0 C 56 % 90 % 0 % 1016,7 hPa 0,0 l/m 0,0 km/h (0 Bft) 0,00 h 0,00 h 0,0 km/h (0 Bft)
13.08.2010 05:00 22,2 C 13,8 C 0,0 UV-I 0,0 C 56 % 89 % 0 % 1016,4 hPa 0,0 l/m 0,0 km/h (0 Bft) 0,00 h 0,00 h 0,0 km/h (0 Bft)
13.08.2010 06:00 22,1 C 13,9 C 0,1 UV-I 0,0 C 57 % 89 % 0 % 1016,5 hPa 0,0 l/m 0,3 km/h (0 Bft) 0,00 h 0,00 h 0,4 km/h (0 Bft)
13.08.2010 07:00 22,0 C 14,2 C 0,5 UV-I 0,0 C 58 % 90 % 0 % 1016,5 hPa 0,0 l/m 1,3 km/h (1 Bft) 0,00 h 0,00 h 1,7 km/h (1 Bft)
13.08.2010 08:00 22,0 C 15,1 C 1,5 UV-I 1,0 C 58 % 89 % 27 % 1016,8 hPa 0,0 l/m 1,8 km/h (1 Bft) 0,07 h 0,00 h 2,7 km/h (1 Bft)
13.08.2010 09:00 22,3 C 16,6 C 3,2 UV-I 3,1 C 57 % 82 % 85 % 1017,0 hPa 0,0 l/m 1,5 km/h (1 Bft) 0,55 h 0,00 h 1,7 km/h (1 Bft)
13.08.2010 10:00 22,4 C 17,8 C 8,0 UV-I 6,2 C 56 % 76 % 99 % 1017,0 hPa 0,0 l/m 1,9 km/h (1 Bft) 0,73 h 0,00 h 2,7 km/h (1 Bft)
13.08.2010 11:00 22,5 C 19,7 C 8,8 UV-I 6,1 C 55 % 66 % 100 % 1017,1 hPa 0,0 l/m 3,7 km/h (1 Bft) 0,93 h 0,00 h 4,8 km/h (1 Bft)
13.08.2010 12:00 22,8 C 20,3 C 5,4 UV-I 4,9 C 54 % 63 % 97 % 1016,9 hPa 0,0 l/m 3,3 km/h (1 Bft) 0,93 h 0,00 h 3,7 km/h (1 Bft)
13.08.2010 13:00 23,2 C 21,1 C 5,1 UV-I 4,4 C 53 % 60 % 93 % 1017,0 hPa 0,0 l/m 2,8 km/h (1 Bft) 0,67 h 0,00 h 3,2 km/h (1 Bft)
13.08.2010 14:00 24,0 C 21,6 C 7,6 UV-I 4,8 C 52 % 59 % 98 % 1017,6 hPa 0,0 l/m 3,7 km/h (1 Bft) 0,52 h 0,00 h 5,1 km/h (1 Bft)
13.08.2010 15:00 25,2 C 22,8 C 10,1 UV-I 5,8 C 48 % 54 % 100 % 1018,7 hPa 0,0 l/m 4,5 km/h (1 Bft) 1,00 h 0,00 h 4,9 km/h (1 Bft)
13.08.2010 16:00 26,1 C 22,6 C 4,5 UV-I 3,1 C 45 % 54 % 72 % 1019,0 hPa 0,0 l/m 4,5 km/h (1 Bft) 0,30 h 0,00 h 5,0 km/h (1 Bft)
13.08.2010 17:00 25,3 C 21,0 C 1,8 UV-I 0,3 C 48 % 59 % 10 % 1017,4 hPa 0,0 l/m 4,8 km/h (1 Bft) 0,00 h 0,00 h 6,2 km/h (2 Bft)
13.08.2010 18:00 24,4 C 19,6 C 0,9 UV-I 0,0 C 50 % 64 % 0 % 1017,2 hPa 0,0 l/m 3,4 km/h (1 Bft) 0,00 h 0,00 h 3,5 km/h (1 Bft)
13.08.2010 19:00 23,7 C 17,5 C 0,4 UV-I 0,0 C 52 % 74 % 0 % 1017,0 hPa 0,2 l/m 1,2 km/h (1 Bft) 0,00 h 0,78 h 1,8 km/h (1 Bft)
13.08.2010 20:00 23,3 C 17,0 C 0,5 UV-I 0,0 C 56 % 80 % 0 % 1016,7 hPa 0,0 l/m 0,1 km/h (0 Bft) 0,00 h 0,03 h 0,1 km/h (0 Bft)
13.08.2010 21:00 23,1 C 15,9 C 0,0 UV-I 0,0 C 58 % 86 % 0 % 1017,0 hPa 0,0 l/m 0,1 km/h (0 Bft) 0,00 h 0,07 h 0,6 km/h (0 Bft)
13.08.2010 22:00 22,8 C 15,2 C 0,1 UV-I 0,0 C 58 % 88 % 0 % 1017,6 hPa 0,0 l/m 1,5 km/h (1 Bft) 0,00 h 0,05 h 1,1 km/h (1 Bft)
13.08.2010 23:00 22,6 C 14,5 C 0,1 UV-I 0,0 C 58 % 89 % 0 % 1017,6 hPa 0,0 l/m 0,0 km/h (0 Bft) 0,00 h 0,18 h 0,0 km/h (0 Bft)
14.08.2010 00:00 22,4 C 13,6 C 0,1 UV-I 0,0 C 58 % 91 % 0 % 1017,4 hPa 0,0 l/m 0,0 km/h (0 Bft) 0,00 h 0,03 h 0,0 km/h (0 Bft)
14.08.2010 01:00 22,0 C 13,0 C 0,1 UV-I 0,0 C 57 % 91 % 0 % 1017,2 hPa 0,0 l/m 0,0 km/h (0 Bft) 0,00 h 0,10 h 0,0 km/h (0 Bft)
14.08.2010 02:00 21,7 C 12,5 C 0,1 UV-I 0,0 C 57 % 93 % 0 % 1017,0 hPa 0,0 l/m 0,0 km/h (0 Bft) 0,00 h 0,10 h 0,0 km/h (0 Bft)
14.08.2010 03:00 21,5 C 12,0 C 0,1 UV-I 0,0 C 57 % 93 % 0 % 1016,9 hPa 0,0 l/m 0,0 km/h (0 Bft) 0,00 h 0,13 h 0,0 km/h (0 Bft)
14.08.2010 04:00 21,2 C 11,7 C 0,0 UV-I 0,0 C 57 % 93 % 0 % 1016,8 hPa 0,0 l/m 0,0 km/h (0 Bft) 0,00 h 0,13 h 0,0 km/h (0 Bft)
14.08.2010 05:00 21,0 C 11,2 C 0,0 UV-I 0,0 C 57 % 94 % 0 % 1016,8 hPa 0,0 l/m 0,0 km/h (0 Bft) 0,00 h 0,17 h 0,0 km/h (0 Bft)
14.08.2010 06:00 20,9 C 10,9 C 0,0 UV-I 0,0 C 57 % 94 % 0 % 1017,0 hPa 0,0 l/m 0,0 km/h (0 Bft) 0,00 h 0,13 h 0,0 km/h (0 Bft)
14.08.2010 07:00 20,8 C 11,0 C 0,6 UV-I 0,0 C 57 % 94 % 0 % 1017,0 hPa 0,0 l/m 0,0 km/h (0 Bft) 0,00 h 0,10 h 0,0 km/h (0 Bft)
14.08.2010 08:00 20,9 C 12,6 C 1,6 UV-I 1,7 C 58 % 95 % 40 % 1017,3 hPa 0,0 l/m 0,1 km/h (0 Bft) 0,33 h 0,03 h 0,5 km/h (0 Bft)
14.08.2010 09:00 21,1 C 15,1 C 4,0 UV-I 7,1 C 59 % 92 % 100 % 1017,5 hPa 0,0 l/m 1,7 km/h (1 Bft) 1,00 h 0,00 h 3,0 km/h (1 Bft)
14.08.2010 10:00 21,4 C 17,4 C 9,2 UV-I 7,9 C 60 % 84 % 100 % 1017,6 hPa 0,0 l/m 2,6 km/h (1 Bft) 1,00 h 0,00 h 2,8 km/h (1 Bft)
14.08.2010 11:00 21,6 C 19,8 C 10,4 UV-I 8,1 C 60 % 74 % 100 % 1017,5 hPa 0,0 l/m 2,5 km/h (1 Bft) 1,00 h 0,00 h 3,0 km/h (1 Bft)
14.08.2010 12:00 22,2 C 21,5 C 5,3 UV-I 7,3 C 60 % 67 % 100 % 1017,4 hPa 0,0 l/m 4,0 km/h (1 Bft) 1,00 h 0,00 h 4,7 km/h (1 Bft)
14.08.2010 13:00 23,0 C 23,1 C 9,6 UV-I 7,1 C 58 % 58 % 100 % 1017,6 hPa 0,0 l/m 3,4 km/h (1 Bft) 1,00 h 0,00 h 3,8 km/h (1 Bft)
14.08.2010 14:00 24,3 C 24,8 C 10,5 UV-I 6,1 C 53 % 49 % 100 % 1019,0 hPa 0,0 l/m 3,2 km/h (1 Bft) 0,97 h 0,00 h 3,5 km/h (1 Bft)
14.08.2010 15:00 25,9 C 25,5 C 10,0 UV-I 6,0 C 48 % 46 % 100 % 1019,4 hPa 0,0 l/m 3,9 km/h (1 Bft) 0,98 h 0,00 h 4,3 km/h (1 Bft)
14.08.2010 16:00 26,9 C 25,7 C 7,0 UV-I 4,6 C 46 % 45 % 100 % 1019,5 hPa 0,0 l/m 4,3 km/h (1 Bft) 0,95 h 0,00 h 4,9 km/h (1 Bft)
14.08.2010 17:00 26,8 C 25,0 C 3,1 UV-I 2,2 C 45 % 47 % 61 % 1018,1 hPa 0,0 l/m 5,8 km/h (2 Bft) 0,40 h 0,00 h 6,6 km/h (2 Bft)
14.08.2010 18:00 25,9 C 24,4 C 2,0 UV-I 0,5 C 47 % 51 % 15 % 1016,5 hPa 0,0 l/m 4,3 km/h (1 Bft) 0,00 h 0,00 h 3,8 km/h (1 Bft)
14.08.2010 19:00 25,3 C 24,4 C 1,0 UV-I 0,0 C 49 % 50 % 0 % 1015,9 hPa 0,0 l/m 1,8 km/h (1 Bft) 0,00 h 0,00 h 1,8 km/h (1 Bft)
14.08.2010 20:00 24,8 C 22,8 C 0,5 UV-I 0,0 C 50 % 56 % 0 % 1015,5 hPa 0,0 l/m 1,6 km/h (1 Bft) 0,00 h 0,00 h 1,8 km/h (1 Bft)
14.08.2010 21:00 24,2 C 21,2 C 0,1 UV-I 0,0 C 51 % 63 % 0 % 1015,9 hPa 0,0 l/m 2,5 km/h (1 Bft) 0,00 h 0,00 h 3,0 km/h (1 Bft)
14.08.2010 22:00 23,9 C 20,5 C 0,1 UV-I 0,0 C 53 % 65 % 0 % 1016,1 hPa 0,0 l/m 3,6 km/h (1 Bft) 0,00 h 0,00 h 3,9 km/h (1 Bft)
14.08.2010 23:00 23,7 C 20,2 C 0,1 UV-I 0,0 C 53 % 65 % 0 % 1015,9 hPa 0,0 l/m 2,8 km/h (1 Bft) 0,00 h 0,00 h 3,4 km/h (1 Bft)
15.08.2010 00:00 23,5 C 19,6 C 0,0 UV-I 0,0 C 54 % 66 % 0 % 1016,0 hPa 0,0 l/m 3,3 km/h (1 Bft) 0,00 h 0,00 h 4,3 km/h (1 Bft)
15.08.2010 01:00 23,3 C 18,4 C 0,1 UV-I 0,0 C 54 % 71 % 0 % 1016,0 hPa 0,0 l/m 6,4 km/h (2 Bft) 0,00 h 0,00 h 6,3 km/h (2 Bft)
15.08.2010 02:00 23,2 C 17,5 C 0,1 UV-I 0,0 C 55 % 74 % 0 % 1015,9 hPa 0,0 l/m 4,9 km/h (1 Bft) 0,00 h 0,00 h 5,0 km/h (1 Bft)
15.08.2010 03:00 23,0 C 17,2 C 0,1 UV-I 0,0 C 55 % 76 % 0 % 1016,0 hPa 0,0 l/m 2,6 km/h (1 Bft) 0,00 h 0,00 h 3,4 km/h (1 Bft)
15.08.2010 04:00 23,0 C 17,2 C 0,1 UV-I 0,0 C 55 % 76 % 0 % 1015,7 hPa 0,0 l/m 4,8 km/h (1 Bft) 0,00 h 0,00 h 6,0 km/h (2 Bft)
15.08.2010 05:00 22,8 C 16,6 C 0,1 UV-I 0,0 C 55 % 79 % 0 % 1014,6 hPa 0,0 l/m 9,8 km/h (2 Bft) 0,00 h 0,00 h 10,1 km/h (2 Bft)
15.08.2010 06:00 22,7 C 16,6 C 0,2 UV-I 0,0 C 56 % 82 % 0 % 1014,2 hPa 0,0 l/m 9,8 km/h (2 Bft) 0,00 h 0,00 h 10,1 km/h (2 Bft)
15.08.2010 07:00 22,7 C 17,1 C 0,3 UV-I 0,0 C 57 % 81 % 0 % 1013,6 hPa 0,0 l/m 15,0 km/h (3 Bft) 0,00 h 0,00 h 15,7 km/h (3 Bft)
15.08.2010 08:00 22,7 C 17,2 C 0,6 UV-I 0,0 C 57 % 82 % 0 % 1013,6 hPa 0,0 l/m 16,8 km/h (3 Bft) 0,00 h 0,00 h 16,6 km/h (3 Bft)
15.08.2010 09:00 22,7 C 17,2 C 0,7 UV-I 0,0 C 58 % 84 % 0 % 1013,8 hPa 0,0 l/m 10,7 km/h (2 Bft) 0,00 h 0,48 h 9,9 km/h (2 Bft)
15.08.2010 10:00 22,8 C 17,8 C 1,8 UV-I 0,5 C 58 % 82 % 13 % 1013,5 hPa 0,0 l/m 12,9 km/h (3 Bft) 0,00 h 0,00 h 14,3 km/h (3 Bft)
15.08.2010 11:00 23,0 C 18,6 C 2,1 UV-I 0,5 C 58 % 77 % 14 % 1013,1 hPa 0,0 l/m 16,2 km/h (3 Bft) 0,00 h 0,07 h 17,2 km/h (3 Bft)
15.08.2010 12:00 23,1 C 18,9 C 1,6 UV-I 0,3 C 57 % 72 % 8 % 1012,8 hPa 0,0 l/m 15,1 km/h (3 Bft) 0,00 h 0,00 h 16,4 km/h (3 Bft)
15.08.2010 13:00 23,0 C 18,4 C 0,8 UV-I 0,0 C 57 % 74 % 0 % 1012,4 hPa 0,9 l/m 14,0 km/h (3 Bft) 0,00 h 0,58 h 14,0 km/h (3 Bft)
15.08.2010 14:00 23,0 C 16,7 C 1,3 UV-I 0,0 C 58 % 86 % 0 % 1012,0 hPa 3,4 l/m 10,2 km/h (2 Bft) 0,00 h 1,00 h 10,4 km/h (2 Bft)
15.08.2010 15:00 22,9 C 16,6 C 1,1 UV-I 0,0 C 59 % 90 % 0 % 1011,5 hPa 2,0 l/m 7,4 km/h (2 Bft) 0,00 h 0,92 h 7,4 km/h (2 Bft)
15.08.2010 16:00 22,8 C 16,4 C 0,7 UV-I 0,0 C 59 % 91 % 0 % 1011,6 hPa 5,9 l/m 4,6 km/h (1 Bft) 0,00 h 0,32 h 5,7 km/h (1 Bft)
15.08.2010 17:00 22,8 C 16,3 C 0,6 UV-I 0,0 C 60 % 93 % 0 % 1011,1 hPa 4,5 l/m 4,8 km/h (1 Bft) 0,00 h 0,03 h 5,1 km/h (1 Bft)
15.08.2010 18:00 22,8 C 16,5 C 0,4 UV-I 0,0 C 61 % 94 % 0 % 1010,4 hPa 4,0 l/m 3,9 km/h (1 Bft) 0,00 h 0,20 h 4,3 km/h (1 Bft)
15.08.2010 19:00 22,7 C 16,4 C 0,2 UV-I 0,0 C 61 % 94 % 0 % 1009,9 hPa 5,2 l/m 8,8 km/h (2 Bft) 0,00 h 0,00 h 10,4 km/h (2 Bft)
15.08.2010 20:00 22,6 C 16,1 C 0,2 UV-I 0,0 C 62 % 94 % 0 % 1009,2 hPa 1,6 l/m 10,4 km/h (2 Bft) 0,00 h 0,00 h 11,7 km/h (2 Bft)
15.08.2010 21:00 22,4 C 16,0 C 0,1 UV-I 0,0 C 63 % 94 % 0 % 1008,9 hPa 1,2 l/m 10,1 km/h (2 Bft) 0,00 h 0,82 h 10,2 km/h (2 Bft)
15.08.2010 22:00 22,2 C 15,9 C 0,1 UV-I 0,0 C 63 % 95 % 0 % 1008,7 hPa 1,5 l/m 6,7 km/h (2 Bft) 0,00 h 0,92 h 7,5 km/h (2 Bft)
15.08.2010 23:00 22,1 C 15,9 C 0,1 UV-I 0,0 C 63 % 95 % 0 % 1008,1 hPa 0,4 l/m 3,9 km/h (1 Bft) 0,00 h 0,65 h 4,4 km/h (1 Bft)
Min-Datum _ 14.08.10 14.08.10 09.08.10 09.08.10 13.08.10 14.08.10 09.08.10 15.08.10 - 09.08.10 - - 09.08.10
_ Min-Zeit 06:30 07:14 00:00 00:00 16:20 16:02 00:00 23:42 - 00:12 - - 00:06
Minimum _ 20,8 C 10,7 C 0,0 UV-I 0,0 C 44 % 43 % 0 % 1008,0 hPa - 0,0 km/h (0 Bft) - - 0,0 km/h (0 Bft)
Max-Datum _ 14.08.10 10.08.10 13.08.10 14.08.10 11.08.10 09.08.10 09.08.10 09.08.10 15.08.10 15.08.10 09.08.10 09.08.10 15.08.10
_ Max-Zeit 16:44 14:24 15:42 11:00 08:42 08:06 11:40 17:10 16:35 08:38 11:34 02:00 12:14
Maximum _ 27,0 C 26,9 C 12,8 UV-I 9,1 C 69 % 95 % 100 % 1022,5 hPa 5,9 l/m 20,9 km/h
SW (4 Bft)
0,03 h 0,03 h 35,7 km/h
S (5 Bft)
Durchschnitt _ 23,2 C 18,3 C 2,2 UV-I 1,5 C 57 % 77 % 29 % 1016,9 hPa #39,9 l/m 3,1 km/h (1 Bft) #35:52 h #11:14 h 4,1 km/h (1 Bft)
© 2012 W. Hausmann